Terminal Aerodrome Forecast
Issued by NWS

Home | Current Version | Previous Version | Text Only | Print | Product List | Glossary On
Versions: 1 2 3 4 5 6 7 8 9 10 11 12 13 14 15 16 17 18 19 20 21 22 23 24 25 26 27 28
000
FTUS45 KLKN 031128
TAFEKO
TAF
KEKO 031128Z 0312/0412 VRB05KT P6SM VCSH SCT060 BKN100 OVC200
     FM031600 VRB05KT P6SM SCT100 BKN200
     FM032000 25010G20KT P6SM VCTS SCT060CB BKN100
      TEMPO 0322/0402 VRB12G25KT -TSRA BKN060CB
     FM040400 VRB05KT P6SM SCT080 BKN120=

USA.gov is the U.S. government's official web portal to all federal, state and local government web resources and services.